Katherine, Northern Territory

5:11 AM ACST on March 04, 2015 (GMT +0930)
INTKATHE2 | Change Station
CLOSE
Current Station
Personal Weather Station
Location: Katherine South, NT
Elevation: 364 ft
Nearby Weather Stations

Elev 364 ft 14.47 °S, 132.26 °E | Updated 37 seconds ago

Scattered Clouds
Scattered Clouds
79.9 °F
Feels Like 87 °F
N
0.0
Wind Variable Wind from SE
Gusts 0.0 mph

Today
High -- | Low -- °F
--% Chance of Precip.
Yesterday
High -- | Low -- °F
Precip. -- in
6:42 AM 7:02 PM
Waxing Gibbous, 97% visible
Pressure 29.74 in
Visibility 6.2 miles
Clouds Scattered Clouds 4600 ft
Heat Index 87 °F
Dew Point 80 °F
Humidity 99%
Rainfall 0.00 in
Snow Depth Not available.
UV 0 out of 12
Pollen Not available.
Air Quality Not available.
Flu Activity Not available.
METAR YPTN 031930Z AUTO 00000KT 9999 // SCT046 25/24 Q1007

More Conditions Fewer Conditions

Pressure 29.74 in
Visibility 6.2 miles
Clouds Scattered Clouds 4600 ft
Heat Index 87 °F
Dew Point 80 °F
Humidity 99%
Rainfall 0.00 in
Snow Depth Not available.
UV 0 out of 12
Pollen Not available.
Air Quality Not available.
Flu Activity Not available.
METAR YPTN 031930Z AUTO 00000KT 9999 // SCT046 25/24 Q1007

More Conditions Fewer Conditions

10-Day Weather Forecast

Almanac

Astronomy

Mar. 04, 2015 Rise Set
Actual Time
Civil Twilight
Nautical Twilight
Astronomical Twilight
Moon
Length of Visible Light
Length of Day
Tomorrow will be .
, % of the Moon is Illuminated

Today's Extremes

Country Highs Country Lows

Community

WunderPhotos

Upload Photos

1,802,217 photos uploaded!

WunderBlogs® & News

Nearby

Air Quality

  Air Quality AQ Index Pollutant
Not available.

Snow Depth

Station Depth Elevation

Earthquake Activity

City Distance Mag. Time & Date
Minimum magnitude displayed is 2.5.

Coastal Water Temperatures

Place Temperature

Nearby Weather Stations